Attica, New York
Current Conditions -  °F | °C
As of 9:54 AM on Wednesday 22 Oct 2014 (Local Time) from KBUF Reporting Station
Overcast Overcast  
Wind Chill: 41°   Ceiling: 1900
Heat Index: 46°   Visibility: 10mi
Dew Point: 39°   Wind: 9mph
Humidity: 76%   Direction: 10°N
Pressure: 30.22"   Gusts: 18mph
Location:  42.86°N, 78.28°W
Report Text: KBUF 221354Z 01008G16KT 10SM FEW013 BKN019 OVC028 08/04 A3022 RMK AO2 SLP236 CIG 017V021 T00780039
Loading
Personal Weather Stations






























Interactive Weather Map New forecast layout! Learn more

10-Day Weather Forecast

Advertisements
Track Severe Weather on mobile